Airfield :
LOGIN :

Register | Disclaimer

   EN    FR    IT 

 










Legend :    VFR   Marginal VFR   IFR   Intensive IFR   Very Intensive IFR
Visi :
Ceiling :
>= 8 km
>= 3000ft
5 to 8 km
1000 to 3000 ft
1500m to 5 km
500 to 1000 ft
800 to 1500m
200 to 500 ft
< 800m
< 200 ft
Symbols :   Thunderstorms  Fog  Heavy snow  Heavy precipitations  Wind > 20 kt
SIGMETs :     Misc.  Thunderstorms  Icing  Turbulence  Mountain Waves  Volcanic Ashes






- Airport Elevation : 218 ft
- IATA code : LBG


LFPB - Paris / Le Bourget

CURRENT METAR :
  • 022200Z AUTO 36005KT CAVOK 21/11 Q1012

EXPIRED METARs :
  • 022130Z AUTO 02006KT 350V050 CAVOK 22/11 Q1012
  • 022100Z AUTO 01005KT CAVOK 23/11 Q1012
  • 022030Z AUTO 02005KT CAVOK 24/11 Q1012
  • 022000Z AUTO 04006KT CAVOK 23/10 Q1012
  • 021930Z AUTO 03005KT CAVOK 25/10 Q1012

TAF TAF LFPB
Valid from the 02 at 18:00 until the 03 at 18:00 UTC


021700Z 0218/0318 01008KT CAVOK
TEMPO 0310/0318 VRB10KT FEW060TCU
ATIS : +33 1 48 62 43 92



MET'MAP, your aeronautical weather chart ! - Copyright ORBIFLY December 2007 - Disclaimer

ORBIFLY MET'MAP TEAM :

Programming & Development : Alexandra Zaïnal
Concept & original design : Baudouin d'Aumeries
Assistance for programming : Marc-Olivier Méhu
Technical & hardware support : Manuel Goepfert

Contact : metmap@orbifly.com




SOURCES & CREDITS :

   NOAA